createdAt,value
2022-11-06T00:02:32.291Z,100973.88
2022-11-06T00:05:40.163Z,100966.38
2022-11-06T00:08:28.067Z,100963.47
2022-11-06T00:11:12.005Z,100962.63
2022-11-06T00:13:53.103Z,100975.59
2022-11-06T00:16:34.342Z,100973.78
2022-11-06T00:19:13.613Z,100968.34
2022-11-06T00:21:53.749Z,100969.47
2022-11-06T00:24:33.719Z,100972.81
2022-11-06T00:27:15.003Z,100967.16
2022-11-06T00:30:07.760Z,100978.44
2022-11-06T00:32:48.168Z,100978.31
2022-11-06T00:35:30.575Z,100978.31
2022-11-06T00:38:11.043Z,100983.63
2022-11-06T00:40:50.508Z,100979.03
2022-11-06T00:43:30.755Z,100975.41
2022-11-06T00:46:12.326Z,100975.66
2022-11-06T00:48:53.664Z,100976.50
2022-11-06T00:51:33.455Z,100977.13
2022-11-06T00:54:16.431Z,100980.34
2022-11-06T00:56:57.427Z,100985.50
2022-11-06T00:59:39.217Z,100983.94
2022-11-06T01:02:19.608Z,100982.84
2022-11-06T01:05:00.041Z,100993.31
2022-11-06T01:07:42.579Z,100986.59
2022-11-06T01:10:24.887Z,100985.22
2022-11-06T01:13:05.882Z,100982.72
2022-11-06T01:15:43.825Z,100985.13
2022-11-06T01:18:24.023Z,100982.59
2022-11-06T01:21:07.650Z,100979.09
2022-11-06T01:23:53.029Z,100978.25
2022-11-06T01:26:39.305Z,100976.56
2022-11-06T01:29:25.903Z,100970.06
2022-11-06T01:32:05.336Z,100964.78
2022-11-06T01:34:46.758Z,100965.47
2022-11-06T01:37:24.611Z,100966.81
2022-11-06T01:40:05.058Z,100962.63
2022-11-06T01:42:44.260Z,100966.00
2022-11-06T01:45:32.752Z,100962.38
2022-11-06T01:48:26.504Z,100967.66
2022-11-06T01:51:06.991Z,100971.28
2022-11-06T01:53:46.760Z,100961.66
2022-11-06T01:56:26.636Z,100963.34
2022-11-06T01:59:11.140Z,100961.03
2022-11-06T02:01:51.102Z,100949.84
2022-11-06T02:04:30.821Z,100961.28
2022-11-06T02:07:14.248Z,100954.19
2022-11-06T02:09:55.291Z,100952.88
2022-11-06T02:12:41.659Z,100946.19
2022-11-06T02:15:29.232Z,100937.13
2022-11-06T02:18:28.629Z,100927.25
2022-11-06T02:21:26.341Z,100945.41
2022-11-06T02:24:23.782Z,100945.78
2022-11-06T02:27:06.319Z,100938.41
2022-11-06T02:29:51.238Z,100937.13
2022-11-06T02:32:34.100Z,100937.84
2022-11-06T02:35:19.744Z,100940.63
2022-11-06T02:38:02.485Z,100940.63
2022-11-06T02:41:27.948Z,100938.25
2022-11-06T02:44:11.044Z,100937.41
2022-11-06T02:46:51.942Z,100939.50
2022-11-06T02:49:32.761Z,100942.44
2022-11-06T02:52:14.152Z,100937.25
2022-11-06T02:54:56.267Z,100936.56
2022-11-06T02:57:39.167Z,100935.81
2022-11-06T03:00:19.711Z,100933.56
2022-11-06T03:03:01.560Z,100928.78
2022-11-06T03:05:42.328Z,100928.09
2022-11-06T03:08:25.062Z,100919.63
2022-11-06T03:11:07.842Z,100913.06
2022-11-06T03:13:50.242Z,100908.16
2022-11-06T03:16:30.740Z,100897.94
2022-11-06T03:19:12.572Z,100903.50
2022-11-06T03:21:55.285Z,100892.75
2022-11-06T03:24:37.204Z,100891.78
2022-11-06T03:27:17.105Z,100890.66
2022-11-06T03:29:59.566Z,100889.88
2022-11-06T03:32:38.495Z,100887.00
2022-11-06T03:35:20.926Z,100884.97
2022-11-06T03:38:02.333Z,100879.69
2022-11-06T03:40:42.774Z,100877.44
2022-11-06T03:43:24.064Z,100884.41
2022-11-06T03:46:19.317Z,100886.22
2022-11-06T03:49:02.338Z,100882.47
2022-11-06T03:51:44.899Z,100886.66
2022-11-06T03:54:26.441Z,100884.97
2022-11-06T03:57:10.679Z,100876.66
2022-11-06T03:59:52.449Z,100876.66
2022-11-06T04:02:33.292Z,100875.69
2022-11-06T04:05:15.946Z,100878.09
2022-11-06T04:08:13.101Z,100875.47
2022-11-06T04:11:11.059Z,100873.50
2022-11-06T04:14:01.789Z,100872.16
2022-11-06T04:16:42.675Z,100870.34
2022-11-06T04:19:23.583Z,100877.03
2022-11-06T04:22:13.635Z,100873.81
2022-11-06T04:25:15.255Z,100882.34
2022-11-06T04:28:07.695Z,100868.84
2022-11-06T04:30:53.270Z,100872.34
2022-11-06T04:33:32.945Z,100877.25
2022-11-06T04:36:16.866Z,100865.56
2022-11-06T04:38:59.618Z,100882.00
2022-11-06T04:41:41.745Z,100886.06
2022-11-06T04:44:24.230Z,100884.25
2022-11-06T04:47:06.195Z,100887.50
2022-11-06T04:49:46.816Z,100884.72
2022-11-06T04:53:10.807Z,100898.53
2022-11-06T04:55:52.732Z,100892.41
2022-11-06T04:58:33.275Z,100899.50
2022-11-06T05:01:12.692Z,100893.38
2022-11-06T05:03:54.802Z,100897.56
2022-11-06T05:06:33.859Z,100890.88
2022-11-06T05:09:12.089Z,100895.06
2022-11-06T05:11:52.299Z,100887.53
2022-11-06T05:14:33.673Z,100881.84
2022-11-06T05:17:15.144Z,100891.28
2022-11-06T05:19:54.508Z,100885.19
2022-11-06T05:22:48.584Z,100884.25
2022-11-06T05:25:30.085Z,100888.38
2022-11-06T05:28:08.712Z,100888.81
2022-11-06T05:30:50.087Z,100885.47
2022-11-06T05:33:31.486Z,100885.28
2022-11-06T05:36:11.527Z,100877.63
2022-11-06T05:38:50.783Z,100876.19
2022-11-06T05:41:51.654Z,100876.59
2022-11-06T05:44:33.086Z,100869.03
2022-11-06T05:47:12.896Z,100851.22
2022-11-06T05:49:52.713Z,100848.91
2022-11-06T05:52:32.568Z,100855.72
2022-11-06T05:55:15.388Z,100852.63
2022-11-06T05:57:59.997Z,100841.91
2022-11-06T06:00:39.924Z,100842.81
2022-11-06T06:03:18.368Z,100849.75
2022-11-06T06:05:59.576Z,100855.25
2022-11-06T06:08:41.033Z,100853.59
2022-11-06T06:11:22.383Z,100861.19
2022-11-06T06:14:02.233Z,100852.97
2022-11-06T06:16:45.627Z,100853.81
2022-11-06T06:19:24.690Z,100857.44
2022-11-06T06:22:04.827Z,100855.31
2022-11-06T06:24:46.756Z,100843.50
2022-11-06T06:27:28.273Z,100845.19
2022-11-06T06:30:07.935Z,100846.28
2022-11-06T06:32:46.989Z,100845.44
2022-11-06T06:35:29.005Z,100853.38
2022-11-06T06:38:12.382Z,100843.78
2022-11-06T06:40:53.760Z,100835.00
2022-11-06T06:43:32.650Z,100842.09
2022-11-06T06:46:10.731Z,100832.03
2022-11-06T06:48:50.951Z,100831.84
2022-11-06T06:51:34.353Z,100835.19
2022-11-06T06:54:15.331Z,100843.13
2022-11-06T06:56:54.853Z,100839.75
2022-11-06T06:59:35.009Z,100841.66
2022-11-06T07:02:16.478Z,100832.53
2022-11-06T07:04:57.756Z,100831.25
2022-11-06T07:07:35.705Z,100830.66
2022-11-06T07:10:15.794Z,100822.63
2022-11-06T07:12:55.611Z,100826.00
2022-11-06T07:15:37.300Z,100825.03
2022-11-06T07:18:18.433Z,100818.06
2022-11-06T07:21:01.975Z,100819.47
2022-11-06T07:23:42.790Z,100823.78
2022-11-06T07:26:22.605Z,100814.81
2022-11-06T07:29:02.518Z,100823.19
2022-11-06T07:31:43.877Z,100824.59
2022-11-06T07:34:25.373Z,100821.34
2022-11-06T07:37:07.803Z,100818.31
2022-11-06T07:39:48.292Z,100826.81
2022-11-06T07:42:31.441Z,100818.34
2022-11-06T07:45:17.411Z,100819.06
2022-11-06T07:47:59.359Z,100822.03
2022-11-06T07:50:49.331Z,100821.78
2022-11-06T07:53:29.488Z,100816.22
2022-11-06T07:56:12.900Z,100821.25
2022-11-06T07:58:53.871Z,100828.06
2022-11-06T08:01:35.908Z,100833.00
2022-11-06T08:04:18.694Z,100829.38
2022-11-06T08:06:59.099Z,100834.16
2022-11-06T08:09:39.529Z,100824.41
2022-11-06T08:12:30.810Z,100822.19
2022-11-06T08:15:09.494Z,100814.72
2022-11-06T08:17:50.772Z,100817.81
2022-11-06T08:20:34.327Z,100810.56
2022-11-06T08:23:15.167Z,100802.50
2022-11-06T08:25:57.373Z,100807.28
2022-11-06T08:28:37.920Z,100801.44
2022-11-06T08:31:17.750Z,100811.63
2022-11-06T08:33:59.573Z,100817.47
2022-11-06T08:36:49.352Z,100819.28
2022-11-06T08:39:28.081Z,100819.28
2022-11-06T08:42:06.996Z,100811.81
2022-11-06T08:44:48.062Z,100819.00
2022-11-06T08:47:29.359Z,100814.19
2022-11-06T08:50:11.395Z,100818.50
2022-11-06T08:52:52.226Z,100814.50
2022-11-06T08:55:34.148Z,100809.63
2022-11-06T08:58:15.184Z,100801.03
2022-11-06T09:00:56.503Z,100793.22
2022-11-06T09:03:35.938Z,100804.28
2022-11-06T09:06:18.064Z,100803.03
2022-11-06T09:08:59.477Z,100805.81
2022-11-06T09:11:40.501Z,100817.56
2022-11-06T09:14:20.285Z,100817.00
2022-11-06T09:17:02.144Z,100827.03
2022-11-06T09:19:41.182Z,100826.22
2022-11-06T09:22:21.353Z,100816.44
2022-11-06T09:25:04.059Z,100808.34
2022-11-06T09:27:48.352Z,100803.56
2022-11-06T09:30:31.153Z,100796.59
2022-11-06T09:33:13.653Z,100780.09
2022-11-06T09:35:54.772Z,100779.50
2022-11-06T09:38:34.626Z,100783.97
2022-11-06T09:41:18.861Z,100782.31
2022-11-06T09:44:05.975Z,100787.31
2022-11-06T09:46:56.953Z,100786.03
2022-11-06T09:49:38.392Z,100783.91
2022-11-06T09:52:18.887Z,100798.75
2022-11-06T09:54:59.871Z,100789.50
2022-11-06T09:57:43.079Z,100791.56
2022-11-06T10:00:25.672Z,100798.81
2022-11-06T10:03:06.798Z,100789.72
2022-11-06T10:06:09.243Z,100784.94
2022-11-06T10:08:50.223Z,100789.38
2022-11-06T10:11:41.489Z,100782.91
2022-11-06T10:14:25.968Z,100775.91
2022-11-06T10:17:08.466Z,100784.47
2022-11-06T10:19:51.182Z,100789.13
2022-11-06T10:22:33.081Z,100793.41
2022-11-06T10:25:15.111Z,100798.63
2022-11-06T10:27:59.862Z,100786.09
2022-11-06T10:31:30.234Z,100784.94
2022-11-06T10:34:12.179Z,100780.34
2022-11-06T10:36:52.999Z,100777.03
2022-11-06T10:39:34.912Z,100780.16
2022-11-06T10:42:15.725Z,100776.34
2022-11-06T10:44:57.620Z,100770.56
2022-11-06T10:47:39.851Z,100757.09
2022-11-06T10:50:17.819Z,100752.47
2022-11-06T10:52:58.365Z,100760.50
2022-11-06T10:55:41.561Z,100748.16
2022-11-06T10:58:24.633Z,100743.50
2022-11-06T11:01:05.789Z,100736.00
2022-11-06T11:03:46.771Z,100742.53
2022-11-06T11:06:28.101Z,100745.69
2022-11-06T11:09:13.422Z,100741.81
2022-11-06T11:11:54.243Z,100730.44
2022-11-06T11:14:35.582Z,100729.88
2022-11-06T11:17:20.888Z,100721.38
2022-11-06T11:20:02.100Z,100716.94
2022-11-06T11:22:43.010Z,100722.56
2022-11-06T11:25:26.526Z,100713.28
2022-11-06T11:28:07.362Z,100703.34
2022-11-06T11:30:47.289Z,100697.16
2022-11-06T11:33:29.880Z,100709.38
2022-11-06T11:36:10.706Z,100701.75
2022-11-06T11:38:53.373Z,100703.56
2022-11-06T11:41:36.415Z,100694.81
2022-11-06T11:44:18.093Z,100691.97
2022-11-06T11:46:58.923Z,100693.41
2022-11-06T11:49:40.232Z,100688.56
2022-11-06T11:52:21.523Z,100691.34
2022-11-06T11:55:01.511Z,100695.09
2022-11-06T11:57:43.015Z,100685.13
2022-11-06T12:00:26.302Z,100687.06
2022-11-06T12:03:07.672Z,100677.09
2022-11-06T12:05:48.649Z,100677.91
2022-11-06T12:08:28.579Z,100672.41
2022-11-06T12:11:11.150Z,100674.13
2022-11-06T12:14:13.592Z,100662.81
2022-11-06T12:16:54.406Z,100669.47
2022-11-06T12:19:35.380Z,100666.47
2022-11-06T12:22:18.044Z,100656.63
2022-11-06T12:24:59.909Z,100649.28
2022-11-06T12:27:41.930Z,100650.44
2022-11-06T12:30:22.242Z,100638.19
2022-11-06T12:33:05.027Z,100633.59
2022-11-06T12:35:47.139Z,100635.13
2022-11-06T12:38:31.253Z,100631.50
2022-11-06T12:41:16.479Z,100629.81
2022-11-06T12:43:57.512Z,100629.22
2022-11-06T12:46:58.983Z,100629.34
2022-11-06T12:49:52.784Z,100624.53
2022-11-06T12:52:41.866Z,100615.75
2022-11-06T12:55:24.954Z,100618.75
2022-11-06T12:58:14.960Z,100611.59
2022-11-06T13:00:58.587Z,100606.19
2022-11-06T13:03:46.405Z,100591.78
2022-11-06T13:06:29.760Z,100593.56
2022-11-06T13:09:13.265Z,100590.88
2022-11-06T13:11:56.570Z,100583.69
2022-11-06T13:14:36.642Z,100574.19
2022-11-06T13:17:22.013Z,100571.75
2022-11-06T13:20:17.642Z,100568.41
2022-11-06T13:23:00.941Z,100557.03
2022-11-06T13:25:44.153Z,100553.28
2022-11-06T13:28:27.147Z,100553.47
2022-11-06T13:31:08.716Z,100553.19
2022-11-06T13:33:48.917Z,100547.03
2022-11-06T13:36:29.430Z,100529.22
2022-11-06T13:39:13.433Z,100535.72
2022-11-06T13:41:51.778Z,100527.53
2022-11-06T13:44:32.211Z,100519.19
2022-11-06T13:47:13.713Z,100521.16
2022-11-06T13:49:57.971Z,100514.78
2022-11-06T13:52:58.503Z,100506.16
2022-11-06T13:55:44.332Z,100508.97
2022-11-06T13:58:35.304Z,100507.59
2022-11-06T14:01:22.238Z,100500.94
2022-11-06T14:04:19.940Z,100488.50
2022-11-06T14:07:00.877Z,100481.69
2022-11-06T14:09:43.707Z,100481.53
2022-11-06T14:12:22.139Z,100464.91
2022-11-06T14:15:23.257Z,100478.03
2022-11-06T14:18:13.510Z,100477.53
2022-11-06T14:21:18.759Z,100470.56
2022-11-06T14:24:07.187Z,100462.25
2022-11-06T14:26:49.724Z,100457.09
2022-11-06T14:29:52.980Z,100448.06
2022-11-06T14:32:41.045Z,100464.22
2022-11-06T14:35:46.991Z,100454.59
2022-11-06T14:38:36.387Z,100458.88
2022-11-06T14:41:50.044Z,100453.22
2022-11-06T14:44:43.631Z,100458.41
2022-11-06T14:47:34.540Z,100459.41
2022-11-06T14:50:26.235Z,100455.22
2022-11-06T14:53:21.624Z,100461.03
2022-11-06T14:56:02.215Z,100449.06
2022-11-06T14:58:48.123Z,100463.03
2022-11-06T15:01:34.497Z,100461.50
2022-11-06T15:04:19.346Z,100459.16
2022-11-06T15:07:02.169Z,100456.50
2022-11-06T15:09:46.488Z,100449.13
2022-11-06T15:22:57.601Z,100431.50
2022-11-06T15:36:06.614Z,100463.22
2022-11-06T15:38:49.869Z,100449.41
2022-11-06T15:41:32.494Z,100457.38
2022-11-06T15:44:13.485Z,100446.22
2022-11-06T15:46:55.094Z,100451.03
2022-11-06T15:50:11.091Z,100442.88
2022-11-06T15:52:51.492Z,100442.72
2022-11-06T15:55:34.726Z,100442.06
2022-11-06T15:58:30.882Z,100439.19
2022-11-06T16:01:23.912Z,100427.69
2022-11-06T16:04:44.469Z,100419.56
2022-11-06T16:07:29.036Z,100417.22
2022-11-06T16:10:08.527Z,100409.41
2022-11-06T16:12:58.997Z,100396.81
2022-11-06T16:15:53.936Z,100400.75
2022-11-06T16:18:36.923Z,100395.75
2022-11-06T16:22:06.007Z,100391.56
2022-11-06T16:24:47.786Z,100379.13
2022-11-06T16:27:28.753Z,100370.31
2022-11-06T16:30:24.817Z,100375.78
2022-11-06T16:33:11.630Z,100372.25
2022-11-06T16:35:55.463Z,100373.56
2022-11-06T16:38:42.208Z,100366.38
2022-11-06T16:41:41.134Z,100357.34
2022-11-06T16:44:30.723Z,100345.38
2022-11-06T16:47:16.580Z,100346.41
2022-11-06T16:49:57.961Z,100349.06
2022-11-06T16:52:54.761Z,100345.13
2022-11-06T16:55:35.428Z,100331.84
2022-11-06T16:58:17.103Z,100336.53
2022-11-06T17:00:59.674Z,100326.94
2022-11-06T17:03:42.447Z,100322.66
2022-11-06T17:06:23.744Z,100321.34
2022-11-06T17:09:09.805Z,100315.38
2022-11-06T17:11:50.228Z,100317.38
2022-11-06T17:14:30.428Z,100327.66
2022-11-06T17:17:24.470Z,100332.31
2022-11-06T17:20:07.287Z,100327.97
2022-11-06T17:22:49.904Z,100324.63
2022-11-06T17:25:30.049Z,100336.94
2022-11-06T17:28:16.351Z,100337.91
2022-11-06T17:30:57.672Z,100329.94
2022-11-06T17:33:39.024Z,100311.50
2022-11-06T17:36:20.938Z,100325.59
2022-11-06T17:39:01.995Z,100337.88
2022-11-06T17:41:43.313Z,100336.22
2022-11-06T17:44:22.256Z,100325.91
2022-11-06T17:47:03.918Z,100334.88
2022-11-06T17:49:46.774Z,100352.47
2022-11-06T17:52:27.344Z,100346.16
2022-11-06T17:55:10.882Z,100351.25
2022-11-06T17:57:51.773Z,100342.47
2022-11-06T18:00:33.292Z,100354.53
2022-11-06T18:03:20.107Z,100328.66
2022-11-06T18:05:58.853Z,100332.47
2022-11-06T18:08:39.023Z,100316.19
2022-11-06T18:11:20.541Z,100333.72
2022-11-06T18:14:01.880Z,100312.47
2022-11-06T18:16:49.139Z,100309.16
2022-11-06T18:19:29.471Z,100313.63
2022-11-06T18:22:10.955Z,100311.28
2022-11-06T18:25:34.410Z,100297.19
2022-11-06T18:28:16.272Z,100288.22
2022-11-06T18:30:58.246Z,100289.38
2022-11-06T18:33:38.656Z,100284.91
2022-11-06T18:36:22.079Z,100279.59
2022-11-06T18:39:04.496Z,100270.66
2022-11-06T18:41:44.642Z,100268.94
2022-11-06T18:44:25.907Z,100263.31
2022-11-06T18:47:07.309Z,100269.13
2022-11-06T18:49:46.737Z,100266.50
2022-11-06T18:52:51.655Z,100274.28
2022-11-06T18:55:27.626Z,100265.84
2022-11-06T18:58:12.261Z,100260.91
2022-11-06T19:00:57.539Z,100272.88
2022-11-06T19:14:06.123Z,100266.47
2022-11-06T19:16:45.343Z,100254.84
2022-11-06T19:19:25.567Z,100261.53
2022-11-06T19:22:06.811Z,100270.47
2022-11-06T19:24:46.687Z,100269.50
2022-11-06T19:27:28.065Z,100277.47
2022-11-06T19:30:10.486Z,100263.50
2022-11-06T19:32:53.917Z,100267.16
2022-11-06T19:35:34.006Z,100269.56
2022-11-06T19:38:15.281Z,100264.06
2022-11-06T19:40:56.852Z,100268.88
2022-11-06T19:43:39.285Z,100260.50
2022-11-06T19:46:24.937Z,100253.69
2022-11-06T19:49:10.455Z,100254.47
2022-11-06T19:52:41.705Z,100252.63
2022-11-06T19:55:27.032Z,100249.91
2022-11-06T19:58:28.433Z,100253.59
2022-11-06T20:01:13.535Z,100226.91
2022-11-06T20:03:54.584Z,100201.00
2022-11-06T20:06:49.302Z,100188.66
2022-11-06T20:09:30.819Z,100179.16
2022-11-06T20:12:14.101Z,100174.69
2022-11-06T20:15:37.279Z,100170.09
2022-11-06T20:18:21.629Z,100159.34
2022-11-06T20:21:01.834Z,100151.31
2022-11-06T20:23:42.966Z,100146.19
2022-11-06T20:26:24.616Z,100163.06
2022-11-06T20:29:25.454Z,100157.59
2022-11-06T20:32:25.703Z,100165.19
2022-11-06T20:35:26.289Z,100153.41
2022-11-06T20:38:07.911Z,100147.72
2022-11-06T20:40:49.155Z,100157.19
2022-11-06T20:43:42.586Z,100147.56
2022-11-06T20:46:47.805Z,100144.22
2022-11-06T20:49:29.355Z,100142.97
2022-11-06T20:52:14.138Z,100164.00
2022-11-06T20:54:57.043Z,100143.84
2022-11-06T20:57:38.092Z,100137.56
2022-11-06T21:00:19.994Z,100155.78
2022-11-06T21:03:02.098Z,100156.47
2022-11-06T21:06:03.079Z,100164.25
2022-11-06T21:08:44.693Z,100167.75
2022-11-06T21:11:45.103Z,100167.59
2022-11-06T21:14:27.464Z,100179.03
2022-11-06T21:17:11.063Z,100172.91
2022-11-06T21:19:52.531Z,100181.53
2022-11-06T21:22:36.925Z,100162.59
2022-11-06T21:25:20.213Z,100162.00
2022-11-06T21:28:01.482Z,100169.28
2022-11-06T21:30:42.770Z,100175.25
2022-11-06T21:33:22.695Z,100173.72
2022-11-06T21:36:09.289Z,100178.41
2022-11-06T21:38:50.406Z,100176.91
2022-11-06T21:41:33.953Z,100180.22
2022-11-06T21:44:17.264Z,100172.44
2022-11-06T21:46:57.688Z,100174.25
2022-11-06T21:49:39.617Z,100168.78
2022-11-06T21:52:38.032Z,100167.97
2022-11-06T21:55:37.575Z,100153.41
2022-11-06T21:58:20.564Z,100142.34
2022-11-06T22:01:04.416Z,100147.88
2022-11-06T22:03:47.009Z,100170.41
2022-11-06T22:06:28.456Z,100178.72
2022-11-06T22:09:24.472Z,100182.22
2022-11-06T22:12:07.981Z,100168.78
2022-11-06T22:14:51.029Z,100186.53
2022-11-06T22:17:31.255Z,100186.84
2022-11-06T22:20:11.415Z,100186.16
2022-11-06T22:22:52.277Z,100189.13
2022-11-06T22:25:35.589Z,100185.16
2022-11-06T22:28:18.656Z,100186.00
2022-11-06T22:30:59.685Z,100187.97
2022-11-06T22:33:47.948Z,100193.66
2022-11-06T22:36:30.515Z,100185.69
2022-11-06T22:39:13.849Z,100194.63
2022-11-06T22:41:54.894Z,100199.94
2022-11-06T22:44:36.433Z,100201.28
2022-11-06T22:47:17.688Z,100192.38
2022-11-06T22:49:57.473Z,100191.81
2022-11-06T22:52:39.326Z,100197.94
2022-11-06T22:55:20.355Z,100193.47
2022-11-06T22:58:21.059Z,100198.50
2022-11-06T23:01:02.409Z,100202.09
2022-11-06T23:03:43.969Z,100197.34
2022-11-06T23:06:27.286Z,100198.19
2022-11-06T23:09:09.112Z,100208.94
2022-11-06T23:11:49.517Z,100212.44
2022-11-06T23:14:27.418Z,100216.59
2022-11-06T23:17:07.615Z,100216.59
2022-11-06T23:19:48.939Z,100212.44
2022-11-06T23:22:37.791Z,100209.31
2022-11-06T23:25:19.405Z,100223.22
2022-11-06T23:28:00.605Z,100219.28
2022-11-06T23:30:43.033Z,100226.41
2022-11-06T23:33:24.437Z,100217.84
2022-11-06T23:36:06.739Z,100223.97
2022-11-06T23:38:46.786Z,100219.84
2022-11-06T23:41:45.605Z,100223.19
2022-11-06T23:44:42.886Z,100225.84
2022-11-06T23:47:25.081Z,100228.16
2022-11-06T23:50:07.009Z,100230.50
2022-11-06T23:52:47.499Z,100233.97
2022-11-06T23:55:30.880Z,100238.84
2022-11-06T23:58:11.874Z,100220.28
